EmailTwitter


Surface observations / Quebec / CYQB (71714)

Regions: Quebec | Canada | USA | Europe | France | UK | Elsewhere
Station
Display
Info & Location for CYQB (71714) | Help decoding METAR

Weather Conditions observed on 2019/01/17 at 21:00 UTC at QUEBEC A, QB (CYQB)

Sky conditions: few clouds.

Temperature: -20.0 Celsius.

Dewpoint: -27.0 Celsius.

Relative Humidity: 54%

Windchill Factor: -27.

Winds: West-southwest at 9 km/h or 5 knots.

Mean Sea level Pressure: 102.86 kilopascals.

Altimeter Setting (QNH): 102.74 kilopascals or 30.34 inches of mercury.

Horizontal visibility: 30.00 statute miles or 48.00 kilometers.

Coded METAR:

CYQB 172100Z 25005KT 30SM FEW240 M20/M27 A3034 RMK CI1 CI TR SLP286=